createdAt,value
2023-05-05T00:01:14.639Z,13.25
2023-05-05T00:03:47.498Z,13.40
2023-05-05T00:06:19.840Z,12.82
2023-05-05T00:08:51.867Z,13.27
2023-05-05T00:11:23.982Z,12.38
2023-05-05T00:13:56.063Z,13.57
2023-05-05T00:16:28.293Z,14.13
2023-05-05T00:19:00.413Z,14.30
2023-05-05T00:21:32.495Z,13.82
2023-05-05T00:24:04.844Z,14.07
2023-05-05T00:26:36.803Z,13.07
2023-05-05T00:29:08.868Z,14.05
2023-05-05T00:31:40.737Z,13.55
2023-05-05T00:34:12.724Z,14.15
2023-05-05T00:36:44.571Z,14.07
2023-05-05T00:39:16.662Z,14.23
2023-05-05T00:41:48.508Z,13.90
2023-05-05T00:44:36.834Z,15.25
2023-05-05T00:47:09.670Z,13.80
2023-05-05T00:49:41.583Z,13.85
2023-05-05T00:52:13.618Z,14.30
2023-05-05T00:54:45.489Z,15.00
2023-05-05T00:57:17.596Z,13.98
2023-05-05T00:59:51.357Z,13.75
2023-05-05T01:02:23.246Z,14.52
2023-05-05T01:04:55.668Z,14.95
2023-05-05T01:07:53.392Z,14.35
2023-05-05T01:10:25.495Z,14.45
2023-05-05T01:13:33.174Z,14.32
2023-05-05T01:16:16.940Z,14.88
2023-05-05T01:19:20.119Z,14.50
2023-05-05T01:22:48.132Z,14.25
2023-05-05T01:25:27.171Z,14.70
2023-05-05T01:28:16.972Z,15.25
2023-05-05T01:31:03.629Z,15.00
2023-05-05T01:33:43.130Z,14.63
2023-05-05T01:36:31.597Z,14.35
2023-05-05T01:39:06.743Z,14.85
2023-05-05T01:41:45.511Z,15.15
2023-05-05T01:44:19.982Z,14.75
2023-05-05T01:46:53.619Z,15.13
2023-05-05T01:49:27.134Z,15.85
2023-05-05T01:52:00.912Z,16.17
2023-05-05T01:54:35.181Z,14.57
2023-05-05T01:57:09.979Z,15.93
2023-05-05T01:59:42.390Z,16.10
2023-05-05T02:02:16.236Z,15.18
2023-05-05T02:04:49.834Z,15.35
2023-05-05T02:07:22.989Z,15.75
2023-05-05T02:09:56.468Z,14.93
2023-05-05T02:12:30.170Z,16.55
2023-05-05T02:15:03.532Z,15.45
2023-05-05T02:17:35.584Z,15.50
2023-05-05T02:20:09.501Z,16.70
2023-05-05T02:22:41.722Z,15.23
2023-05-05T02:25:13.705Z,15.50
2023-05-05T02:27:46.833Z,15.32
2023-05-05T02:30:20.888Z,15.98
2023-05-05T02:32:58.373Z,15.25
2023-05-05T02:35:39.914Z,15.25
2023-05-05T02:38:18.638Z,15.20
2023-05-05T02:40:56.445Z,15.35
2023-05-05T02:43:31.471Z,15.25
2023-05-05T02:46:04.986Z,15.60
2023-05-05T02:48:37.965Z,15.43
2023-05-05T02:51:09.880Z,15.90
2023-05-05T02:53:43.127Z,16.13
2023-05-05T02:56:47.338Z,15.75
2023-05-05T02:59:28.740Z,16.15
2023-05-05T03:02:13.554Z,16.45
2023-05-05T03:04:50.462Z,15.00
2023-05-05T03:07:31.317Z,15.88
2023-05-05T03:10:09.855Z,16.43
2023-05-05T03:12:54.240Z,15.35
2023-05-05T03:15:41.520Z,15.75
2023-05-05T03:18:17.572Z,15.55
2023-05-05T03:20:54.599Z,15.52
2023-05-05T03:23:27.098Z,14.45
2023-05-05T03:26:03.800Z,15.52
2023-05-05T03:28:43.065Z,15.30
2023-05-05T03:31:22.578Z,15.63
2023-05-05T03:33:59.010Z,15.80
2023-05-05T03:36:36.934Z,15.35
2023-05-05T03:39:09.101Z,16.13
2023-05-05T03:41:41.875Z,16.00
2023-05-05T03:44:16.131Z,15.63
2023-05-05T03:46:48.899Z,15.73
2023-05-05T03:49:22.438Z,15.23
2023-05-05T03:51:55.909Z,15.32
2023-05-05T03:54:28.665Z,14.95
2023-05-05T03:57:02.882Z,15.25
2023-05-05T03:59:35.943Z,16.42
2023-05-05T04:02:08.881Z,15.73
2023-05-05T04:04:41.887Z,16.17
2023-05-05T04:07:14.552Z,16.15
2023-05-05T04:09:46.896Z,16.60
2023-05-05T04:12:19.672Z,16.02
2023-05-05T04:14:52.872Z,16.05
2023-05-05T04:17:25.541Z,15.48
2023-05-05T04:19:57.838Z,15.00
2023-05-05T04:22:31.429Z,16.30
2023-05-05T04:25:05.899Z,15.57
2023-05-05T04:27:38.550Z,15.45
2023-05-05T04:30:11.858Z,16.25
2023-05-05T04:32:46.900Z,15.60
2023-05-05T04:35:19.894Z,15.52
2023-05-05T04:37:54.830Z,15.35
2023-05-05T04:40:27.952Z,15.45
2023-05-05T04:43:02.937Z,15.43
2023-05-05T04:45:35.846Z,16.10
2023-05-05T04:48:08.919Z,14.77
2023-05-05T04:50:41.851Z,14.30
2023-05-05T04:53:14.853Z,13.75
2023-05-05T04:55:47.470Z,14.05
2023-05-05T04:58:19.796Z,14.18
2023-05-05T05:00:52.605Z,13.82
2023-05-05T05:03:25.969Z,14.10
2023-05-05T05:05:59.830Z,14.25
2023-05-05T05:08:32.462Z,13.13
2023-05-05T05:11:05.868Z,13.10
2023-05-05T05:13:38.436Z,13.60
2023-05-05T05:16:11.833Z,13.25
2023-05-05T05:18:44.672Z,13.18
2023-05-05T05:21:18.841Z,13.38
2023-05-05T05:23:51.561Z,13.02
2023-05-05T05:26:24.851Z,12.48
2023-05-05T05:28:57.536Z,12.90
2023-05-05T05:31:29.838Z,12.52
2023-05-05T05:34:02.828Z,11.80
2023-05-05T05:36:35.793Z,12.95
2023-05-05T05:39:09.806Z,12.27
2023-05-05T05:41:44.336Z,12.18
2023-05-05T05:44:16.780Z,12.48
2023-05-05T05:46:49.831Z,12.85
2023-05-05T05:49:22.791Z,52.40
2023-05-05T05:51:55.785Z,12.15
2023-05-05T05:54:28.814Z,12.20
2023-05-05T05:57:02.529Z,12.57
2023-05-05T05:59:35.841Z,12.48
2023-05-05T06:02:09.723Z,12.10
2023-05-05T06:04:43.840Z,11.43
2023-05-05T06:07:17.310Z,11.43
2023-05-05T06:09:49.789Z,11.52
2023-05-05T06:12:22.468Z,11.32
2023-05-05T06:14:54.801Z,10.30
2023-05-05T06:17:27.468Z,11.07
2023-05-05T06:19:59.772Z,11.35
2023-05-05T06:22:33.344Z,10.60
2023-05-05T06:25:06.771Z,10.48
2023-05-05T06:27:40.136Z,10.80
2023-05-05T06:30:13.770Z,10.85
2023-05-05T06:32:46.776Z,10.70
2023-05-05T06:35:19.810Z,9.90
2023-05-05T06:37:53.736Z,11.07
2023-05-05T06:40:26.376Z,10.75
2023-05-05T06:43:00.744Z,10.63
2023-05-05T06:45:41.944Z,9.98
2023-05-05T06:48:17.775Z,10.70
2023-05-05T06:50:50.349Z,11.40
2023-05-05T06:53:22.767Z,10.32
2023-05-05T06:55:55.471Z,9.15
2023-05-05T06:58:27.776Z,9.23
2023-05-05T07:01:00.429Z,9.30
2023-05-05T07:03:34.098Z,9.80
2023-05-05T07:06:07.158Z,10.15
2023-05-05T07:08:39.721Z,9.85
2023-05-05T07:11:12.744Z,8.80
2023-05-05T07:13:45.444Z,9.30
2023-05-05T07:16:17.734Z,9.10
2023-05-05T07:18:50.400Z,8.68
2023-05-05T07:21:22.739Z,11.27
2023-05-05T07:23:55.322Z,12.32
2023-05-05T07:26:27.757Z,11.90
2023-05-05T07:29:02.206Z,12.43
2023-05-05T07:31:34.737Z,13.35
2023-05-05T07:34:07.350Z,12.20
2023-05-05T07:36:39.729Z,11.27
2023-05-05T07:39:15.034Z,10.75
2023-05-05T07:41:47.723Z,10.07
2023-05-05T07:44:20.611Z,9.13
2023-05-05T07:46:53.749Z,9.57
2023-05-05T07:49:26.916Z,9.68
2023-05-05T07:51:59.724Z,8.93
2023-05-05T07:54:32.470Z,8.30
2023-05-05T07:57:04.704Z,8.35
2023-05-05T07:59:38.584Z,8.90
2023-05-05T08:02:15.719Z,9.38
2023-05-05T08:04:48.505Z,9.30
2023-05-05T08:07:21.688Z,9.05
2023-05-05T08:09:54.755Z,8.75
2023-05-05T08:12:27.324Z,8.90
2023-05-05T08:14:59.700Z,8.30
2023-05-05T08:17:46.180Z,9.18
2023-05-05T08:20:20.709Z,9.07
2023-05-05T08:22:53.490Z,9.50
2023-05-05T08:25:27.665Z,10.98
2023-05-05T08:28:00.924Z,10.13
2023-05-05T08:30:33.721Z,8.00
2023-05-05T08:33:07.703Z,8.57
2023-05-05T08:35:40.434Z,9.50
2023-05-05T08:38:14.872Z,9.02
2023-05-05T08:40:47.429Z,11.75
2023-05-05T08:43:23.728Z,12.20
2023-05-05T08:45:56.844Z,9.63
2023-05-05T08:48:32.457Z,14.85
2023-05-05T08:51:06.657Z,9.32
2023-05-05T08:53:57.884Z,9.13
2023-05-05T08:56:36.805Z,9.63
2023-05-05T08:59:11.208Z,8.68
2023-05-05T09:01:45.060Z,8.63
2023-05-05T09:04:19.141Z,10.48
2023-05-05T09:06:51.409Z,8.63
2023-05-05T09:09:24.171Z,9.00
2023-05-05T09:11:57.716Z,7.30
2023-05-05T09:14:29.561Z,8.48
2023-05-05T09:17:03.214Z,7.72
2023-05-05T09:20:04.466Z,7.78
2023-05-05T09:22:41.542Z,6.72
2023-05-05T09:25:15.662Z,7.78
2023-05-05T09:27:49.387Z,6.78
2023-05-05T09:30:26.130Z,6.40
2023-05-05T09:32:58.134Z,8.25
2023-05-05T09:35:55.632Z,7.38
2023-05-05T09:38:27.451Z,6.35
2023-05-05T09:40:59.414Z,6.68
2023-05-05T09:43:49.981Z,6.10
2023-05-05T09:46:22.232Z,7.43
2023-05-05T09:48:54.192Z,7.68
2023-05-05T09:51:30.682Z,7.30
2023-05-05T09:54:02.640Z,8.27
2023-05-05T09:56:45.775Z,6.70
2023-05-05T09:59:18.093Z,6.70
2023-05-05T10:01:50.883Z,7.47
2023-05-05T10:04:30.651Z,6.65
2023-05-05T10:07:03.151Z,5.97
2023-05-05T10:09:35.108Z,6.30
2023-05-05T10:12:10.435Z,6.13
2023-05-05T10:14:43.316Z,6.70
2023-05-05T10:17:17.381Z,7.93
2023-05-05T10:19:52.348Z,6.32
2023-05-05T10:22:38.453Z,5.50
2023-05-05T10:25:13.674Z,5.47
2023-05-05T10:27:53.818Z,6.25
2023-05-05T10:30:41.808Z,5.82
2023-05-05T10:35:59.999Z,6.00
2023-05-05T10:38:35.090Z,5.38
2023-05-05T10:41:07.998Z,5.03
2023-05-05T10:43:44.082Z,6.30
2023-05-05T10:46:16.364Z,5.90
2023-05-05T10:49:05.601Z,6.05
2023-05-05T10:52:00.782Z,5.70
2023-05-05T10:55:13.014Z,5.80
2023-05-05T10:57:46.233Z,8.07
2023-05-05T11:00:39.732Z,6.90
2023-05-05T11:03:17.694Z,5.90
2023-05-05T11:06:08.999Z,5.80
2023-05-05T11:09:28.798Z,6.07
2023-05-05T11:12:05.296Z,6.20
2023-05-05T11:14:37.167Z,7.13
2023-05-05T11:17:45.339Z,6.35
2023-05-05T11:20:17.430Z,6.05
2023-05-05T11:23:05.197Z,6.45
2023-05-05T11:25:38.084Z,6.55
2023-05-05T11:28:15.071Z,5.78
2023-05-05T11:30:59.389Z,6.55
2023-05-05T11:33:33.077Z,6.10
2023-05-05T11:36:07.125Z,4.90
2023-05-05T11:38:39.376Z,5.95
2023-05-05T11:41:19.213Z,5.30
2023-05-05T11:44:07.922Z,4.67
2023-05-05T11:47:02.649Z,4.97
2023-05-05T11:49:35.394Z,5.57
2023-05-05T11:52:08.213Z,4.72
2023-05-05T11:54:41.996Z,6.80
2023-05-05T11:57:27.040Z,5.47
2023-05-05T12:00:08.342Z,4.55
2023-05-05T12:02:40.736Z,4.97
2023-05-05T12:05:19.707Z,5.70
2023-05-05T12:07:58.455Z,4.38
2023-05-05T12:10:30.647Z,6.07
2023-05-05T12:13:02.612Z,6.13
2023-05-05T12:15:34.746Z,5.85
2023-05-05T12:18:18.775Z,5.45
2023-05-05T12:20:52.314Z,6.93
2023-05-05T12:23:27.348Z,5.78
2023-05-05T12:25:59.360Z,4.70
2023-05-05T12:28:47.812Z,5.38
2023-05-05T12:31:20.491Z,4.97
2023-05-05T12:33:52.770Z,4.15
2023-05-05T12:36:24.956Z,5.40
2023-05-05T12:38:58.120Z,6.43
2023-05-05T12:41:30.042Z,5.18
2023-05-05T12:44:03.354Z,5.10
2023-05-05T12:46:46.005Z,5.65
2023-05-05T12:49:17.896Z,4.43
2023-05-05T12:51:55.238Z,4.80
2023-05-05T12:54:30.175Z,4.50
2023-05-05T12:57:11.608Z,5.20
2023-05-05T12:59:43.500Z,4.10
2023-05-05T13:02:18.746Z,4.38
2023-05-05T13:04:54.693Z,4.05
2023-05-05T13:07:26.584Z,4.43
2023-05-05T13:10:10.514Z,4.55
2023-05-05T13:12:42.633Z,4.70
2023-05-05T13:15:14.609Z,4.00
2023-05-05T13:17:46.548Z,5.25
2023-05-05T13:20:18.556Z,4.22
2023-05-05T13:22:51.396Z,4.40
2023-05-05T13:25:23.362Z,4.85
2023-05-05T13:27:55.286Z,4.50
2023-05-05T13:30:27.241Z,4.55
2023-05-05T13:32:59.263Z,3.90
2023-05-05T13:35:31.141Z,4.03
2023-05-05T13:38:03.015Z,4.03
2023-05-05T13:40:34.969Z,3.65
2023-05-05T13:43:06.878Z,4.43
2023-05-05T13:45:41.753Z,3.63
2023-05-05T13:48:14.005Z,3.95
2023-05-05T13:50:48.751Z,4.03
2023-05-05T13:53:21.086Z,4.38
2023-05-05T13:55:52.991Z,3.92
2023-05-05T13:58:25.181Z,3.50
2023-05-05T14:00:57.076Z,3.53
2023-05-05T14:03:29.408Z,3.70
2023-05-05T14:06:01.401Z,3.40
2023-05-05T14:08:33.369Z,4.00
2023-05-05T14:11:05.286Z,3.55
2023-05-05T14:13:37.159Z,4.15
2023-05-05T14:16:09.008Z,3.70
2023-05-05T14:18:41.026Z,4.35
2023-05-05T14:21:12.916Z,3.90
2023-05-05T14:23:44.796Z,3.95
2023-05-05T14:26:16.868Z,4.00
2023-05-05T14:28:49.934Z,3.65
2023-05-05T14:31:22.209Z,3.85
2023-05-05T14:33:54.109Z,5.75
2023-05-05T14:36:26.918Z,31.27
2023-05-05T14:38:58.803Z,5.60
2023-05-05T14:41:30.751Z,5.15
2023-05-05T14:44:02.633Z,4.03
2023-05-05T14:46:34.676Z,4.97
2023-05-05T14:49:06.661Z,5.03
2023-05-05T14:51:38.486Z,4.70
2023-05-05T14:54:24.241Z,5.28
2023-05-05T14:56:59.409Z,4.72
2023-05-05T14:59:31.420Z,4.70
2023-05-05T15:02:03.241Z,3.60
2023-05-05T15:04:35.082Z,4.22
2023-05-05T15:07:06.993Z,4.05
2023-05-05T15:09:38.926Z,4.88
2023-05-05T15:12:10.827Z,3.78
2023-05-05T15:14:42.761Z,3.45
2023-05-05T15:17:14.626Z,3.95
2023-05-05T15:19:46.504Z,3.58
2023-05-05T15:22:18.410Z,3.33
2023-05-05T15:24:50.524Z,3.35
2023-05-05T15:27:22.498Z,3.60
2023-05-05T15:29:55.325Z,3.08
2023-05-05T15:32:27.232Z,3.35
2023-05-05T15:35:01.658Z,3.10
2023-05-05T15:37:33.579Z,3.70
2023-05-05T15:40:05.992Z,3.25
2023-05-05T15:42:38.373Z,3.03
2023-05-05T15:45:14.911Z,3.70
2023-05-05T15:47:46.836Z,4.00
2023-05-05T15:50:19.074Z,3.70
2023-05-05T15:52:51.029Z,3.70
2023-05-05T15:55:23.876Z,3.47
2023-05-05T15:57:55.866Z,2.88
2023-05-05T16:00:28.184Z,3.90
2023-05-05T16:03:00.242Z,3.30
2023-05-05T16:05:32.147Z,3.22
2023-05-05T16:08:09.633Z,3.20
2023-05-05T16:10:41.509Z,3.53
2023-05-05T16:13:14.064Z,3.08
2023-05-05T16:15:46.301Z,3.40
2023-05-05T16:18:18.152Z,3.63
2023-05-05T16:20:50.031Z,3.10
2023-05-05T16:23:22.019Z,3.50
2023-05-05T16:25:53.935Z,3.50
2023-05-05T16:28:26.020Z,3.25
2023-05-05T16:30:57.824Z,3.25
2023-05-05T16:33:29.987Z,2.80
2023-05-05T16:36:01.793Z,2.75
2023-05-05T16:38:33.588Z,3.40
2023-05-05T16:41:06.989Z,2.92
2023-05-05T16:43:39.080Z,3.22
2023-05-05T16:46:11.047Z,2.63
2023-05-05T16:48:43.063Z,3.20
2023-05-05T16:51:14.867Z,3.70
2023-05-05T16:53:48.848Z,3.15
2023-05-05T16:56:21.196Z,3.90
2023-05-05T16:58:53.139Z,3.80
2023-05-05T17:01:25.007Z,3.45
2023-05-05T17:04:01.845Z,3.90
2023-05-05T17:06:33.712Z,3.55
2023-05-05T17:09:06.367Z,3.30
2023-05-05T17:11:38.244Z,4.55
2023-05-05T17:14:10.090Z,3.90
2023-05-05T17:16:42.052Z,4.35
2023-05-05T17:19:14.288Z,4.78
2023-05-05T17:21:46.246Z,4.05
2023-05-05T17:24:18.066Z,3.63
2023-05-05T17:26:50.682Z,4.15
2023-05-05T17:29:23.359Z,3.95
2023-05-05T17:31:55.439Z,7.47
2023-05-05T17:34:27.274Z,4.28
2023-05-05T17:36:59.153Z,6.90
2023-05-05T17:39:31.117Z,4.95
2023-05-05T17:42:02.964Z,4.85
2023-05-05T17:44:34.926Z,3.88
2023-05-05T17:47:07.829Z,3.90
2023-05-05T17:49:39.758Z,4.30
2023-05-05T17:52:11.655Z,3.78
2023-05-05T17:54:43.748Z,4.03
2023-05-05T17:57:21.265Z,4.15
2023-05-05T17:59:53.774Z,5.07
2023-05-05T18:02:25.960Z,5.93
2023-05-05T18:04:58.066Z,6.20
2023-05-05T18:07:29.918Z,6.70
2023-05-05T18:10:01.811Z,5.75
2023-05-05T18:12:33.931Z,5.95
2023-05-05T18:15:06.331Z,4.88
2023-05-05T18:17:38.862Z,4.05
2023-05-05T18:20:11.217Z,4.30
2023-05-05T18:22:43.147Z,3.60
2023-05-05T18:25:15.167Z,3.80
2023-05-05T18:27:47.093Z,3.40
2023-05-05T18:30:19.276Z,3.70
2023-05-05T18:32:51.236Z,3.30
2023-05-05T18:35:23.571Z,3.53
2023-05-05T18:37:55.449Z,3.22
2023-05-05T18:40:27.869Z,3.25
2023-05-05T18:43:00.314Z,3.67
2023-05-05T18:45:32.212Z,3.63
2023-05-05T18:48:04.318Z,3.85
2023-05-05T18:50:37.077Z,3.50
2023-05-05T18:53:10.842Z,3.88
2023-05-05T18:55:43.394Z,3.85
2023-05-05T18:58:16.799Z,3.53
2023-05-05T19:00:48.877Z,3.80
2023-05-05T19:03:20.866Z,4.28
2023-05-05T19:05:52.724Z,3.85
2023-05-05T19:08:24.643Z,4.65
2023-05-05T19:10:56.705Z,3.83
2023-05-05T19:13:29.298Z,4.07
2023-05-05T19:16:02.620Z,19.95
2023-05-05T19:18:35.736Z,13.13
2023-05-05T19:21:07.774Z,10.43
2023-05-05T19:23:39.709Z,5.53
2023-05-05T19:26:12.864Z,8.93
2023-05-05T19:28:45.810Z,10.43
2023-05-05T19:31:17.843Z,5.43
2023-05-05T19:33:49.702Z,5.25
2023-05-05T19:36:22.617Z,8.40
2023-05-05T19:38:56.877Z,6.00
2023-05-05T19:41:30.531Z,5.35
2023-05-05T19:44:03.017Z,6.00
2023-05-05T19:46:36.183Z,5.43
2023-05-05T19:49:09.572Z,5.40
2023-05-05T19:51:42.718Z,6.28
2023-05-05T19:54:14.851Z,5.45
2023-05-05T19:56:46.905Z,5.47
2023-05-05T19:59:18.817Z,5.95
2023-05-05T20:01:51.066Z,6.07
2023-05-05T20:04:23.028Z,5.95
2023-05-05T20:06:55.016Z,6.05
2023-05-05T20:09:32.419Z,6.18
2023-05-05T20:12:04.557Z,6.72
2023-05-05T20:14:36.669Z,6.60
2023-05-05T20:17:08.496Z,6.35
2023-05-05T20:19:40.369Z,7.07
2023-05-05T20:22:12.275Z,6.60
2023-05-05T20:24:44.209Z,8.95
2023-05-05T20:27:16.153Z,6.70
2023-05-05T20:29:48.251Z,6.57
2023-05-05T20:32:20.678Z,6.80
2023-05-05T20:34:52.522Z,6.70
2023-05-05T20:37:27.031Z,7.38
2023-05-05T20:39:58.848Z,6.90
2023-05-05T20:42:30.744Z,7.15
2023-05-05T20:45:03.154Z,6.70
2023-05-05T20:47:35.753Z,7.93
2023-05-05T20:50:08.300Z,7.95
2023-05-05T20:52:40.605Z,6.93
2023-05-05T20:55:12.587Z,7.47
2023-05-05T20:57:44.548Z,7.93
2023-05-05T21:00:16.628Z,7.45
2023-05-05T21:02:48.634Z,7.53
2023-05-05T21:05:20.736Z,7.40
2023-05-05T21:07:54.488Z,7.35
2023-05-05T21:10:26.468Z,7.82
2023-05-05T21:12:58.822Z,8.38
2023-05-05T21:15:31.915Z,7.93
2023-05-05T21:18:04.158Z,8.52
2023-05-05T21:20:36.225Z,8.10
2023-05-05T21:23:08.142Z,8.05
2023-05-05T21:25:40.067Z,7.70
2023-05-05T21:28:12.013Z,7.95
2023-05-05T21:30:45.197Z,8.40
2023-05-05T21:33:20.025Z,8.18
2023-05-05T21:35:51.989Z,8.05
2023-05-05T21:38:26.368Z,9.05
2023-05-05T21:40:58.717Z,8.68
2023-05-05T21:43:30.601Z,8.32
2023-05-05T21:46:04.107Z,8.93
2023-05-05T21:48:38.786Z,8.25
2023-05-05T21:51:10.803Z,8.93
2023-05-05T21:53:42.817Z,8.85
2023-05-05T21:56:14.716Z,8.40
2023-05-05T21:58:46.537Z,9.02
2023-05-05T22:01:18.437Z,8.82
2023-05-05T22:03:50.336Z,8.10
2023-05-05T22:06:22.399Z,8.60
2023-05-05T22:08:54.288Z,9.10
2023-05-05T22:11:26.201Z,8.68
2023-05-05T22:13:58.016Z,9.13
2023-05-05T22:16:29.983Z,9.13
2023-05-05T22:19:01.892Z,9.20
2023-05-05T22:21:33.876Z,8.40
2023-05-05T22:24:07.257Z,8.57
2023-05-05T22:26:43.184Z,8.88
2023-05-05T22:29:15.189Z,9.27
2023-05-05T22:31:47.346Z,8.75
2023-05-05T22:34:20.517Z,9.82
2023-05-05T22:36:52.436Z,9.48
2023-05-05T22:39:24.316Z,9.10
2023-05-05T22:41:56.198Z,8.82
2023-05-05T22:44:28.077Z,9.07
2023-05-05T22:46:59.961Z,9.10
2023-05-05T22:49:31.991Z,9.18
2023-05-05T22:52:03.958Z,9.13
2023-05-05T22:54:35.823Z,9.38
2023-05-05T22:57:07.690Z,10.30
2023-05-05T22:59:39.583Z,8.98
2023-05-05T23:02:11.576Z,9.25
2023-05-05T23:04:45.084Z,9.30
2023-05-05T23:07:17.031Z,8.93
2023-05-05T23:09:48.970Z,10.00
2023-05-05T23:12:20.943Z,9.48
2023-05-05T23:14:52.915Z,9.68
2023-05-05T23:17:24.838Z,9.52
2023-05-05T23:19:56.765Z,9.40
2023-05-05T23:22:28.627Z,9.80
2023-05-05T23:25:03.131Z,9.90
2023-05-05T23:27:34.932Z,9.38
2023-05-05T23:30:11.012Z,9.32
2023-05-05T23:32:44.863Z,9.75
2023-05-05T23:35:16.946Z,10.40
2023-05-05T23:37:49.450Z,10.23
2023-05-05T23:40:21.456Z,10.10
2023-05-05T23:42:53.279Z,9.95
2023-05-05T23:45:25.105Z,9.38
2023-05-05T23:47:57.020Z,9.98
2023-05-05T23:50:30.173Z,10.05
2023-05-05T23:53:01.948Z,9.98
2023-05-05T23:55:33.799Z,10.45
2023-05-05T23:58:05.832Z,10.15
